createdAt,value
2018-11-20T00:02:03.084Z,64.26
2018-11-20T00:04:39.259Z,64.05
2018-11-20T00:07:27.281Z,64.70
2018-11-20T00:10:03.243Z,64.33
2018-11-20T00:13:07.848Z,64.38
2018-11-20T00:15:45.853Z,64.88
2018-11-20T00:18:20.069Z,65.28
2018-11-20T00:20:57.111Z,64.53
2018-11-20T00:23:33.146Z,64.55
2018-11-20T00:26:12.018Z,64.47
2018-11-20T00:29:16.183Z,64.43
2018-11-20T00:31:56.317Z,63.37
2018-11-20T00:34:32.132Z,64.09
2018-11-20T00:37:06.943Z,64.45
2018-11-20T00:39:41.911Z,64.00
2018-11-20T00:42:16.165Z,64.16
2018-11-20T00:44:59.090Z,64.08
2018-11-20T00:47:36.957Z,64.25
2018-11-20T00:50:14.277Z,63.37
2018-11-20T00:52:52.312Z,64.13
2018-11-20T00:56:38.518Z,62.85
2018-11-20T00:59:12.835Z,63.85
2018-11-20T01:01:48.742Z,63.16
2018-11-20T01:04:25.368Z,62.77
2018-11-20T01:06:59.645Z,62.86
2018-11-20T01:09:34.654Z,63.62
2018-11-20T01:12:10.137Z,64.06
2018-11-20T01:14:49.697Z,64.61
2018-11-20T01:17:23.994Z,63.89
2018-11-20T01:20:00.827Z,64.28
2018-11-20T01:22:36.886Z,64.33
2018-11-20T01:25:10.443Z,65.42
2018-11-20T01:27:44.593Z,65.19
2018-11-20T01:30:25.484Z,64.20
2018-11-20T01:33:09.479Z,64.26
2018-11-20T01:35:43.452Z,64.98
2018-11-20T01:38:49.053Z,64.95
2018-11-20T01:41:25.869Z,64.79
2018-11-20T01:43:59.917Z,65.26
2018-11-20T01:46:35.067Z,65.03
2018-11-20T01:50:07.557Z,66.19
2018-11-20T01:52:44.573Z,65.46
2018-11-20T01:55:18.769Z,66.13
2018-11-20T01:58:23.009Z,65.55
2018-11-20T02:00:57.282Z,65.74
2018-11-20T02:04:35.460Z,66.35
2018-11-20T02:07:16.676Z,65.48
2018-11-20T02:10:49.517Z,65.85
2018-11-20T02:14:27.263Z,66.56
2018-11-20T02:17:05.935Z,65.89
2018-11-20T02:19:43.131Z,66.02
2018-11-20T02:22:21.290Z,66.53
2018-11-20T02:24:55.529Z,66.27
2018-11-20T02:27:34.366Z,67.24
2018-11-20T02:30:07.345Z,67.09
2018-11-20T02:32:44.345Z,66.34
2018-11-20T02:35:21.750Z,66.71
2018-11-20T02:37:57.731Z,66.50
2018-11-20T02:40:36.420Z,66.88
2018-11-20T02:43:16.452Z,66.65
2018-11-20T02:45:52.511Z,66.33
2018-11-20T02:50:35.599Z,66.87
2018-11-20T02:53:09.634Z,67.12
2018-11-20T02:55:43.798Z,67.10
2018-11-20T02:58:18.736Z,66.43
2018-11-20T03:01:11.820Z,66.80
2018-11-20T03:05:53.694Z,66.86
2018-11-20T03:08:31.765Z,66.46
2018-11-20T03:11:06.074Z,67.62
2018-11-20T03:13:41.232Z,67.75
2018-11-20T03:16:16.092Z,66.77
2018-11-20T03:18:50.371Z,67.21
2018-11-20T03:21:26.337Z,67.19
2018-11-20T03:23:59.329Z,66.86
2018-11-20T03:26:33.237Z,67.07
2018-11-20T03:29:10.701Z,67.26
2018-11-20T03:31:44.600Z,67.35
2018-11-20T03:34:24.523Z,67.58
2018-11-20T03:37:03.559Z,67.46
2018-11-20T03:39:38.171Z,67.40
2018-11-20T03:42:16.228Z,67.22
2018-11-20T03:44:50.526Z,68.13
2018-11-20T03:47:27.651Z,68.46
2018-11-20T03:50:01.703Z,67.67
2018-11-20T03:52:36.331Z,68.10
2018-11-20T03:55:24.716Z,67.23
2018-11-20T03:57:57.686Z,67.32
2018-11-20T04:00:33.745Z,68.01
2018-11-20T04:03:09.653Z,67.10
2018-11-20T04:05:53.846Z,67.96
2018-11-20T04:08:41.816Z,67.21
2018-11-20T04:11:18.842Z,66.60
2018-11-20T04:13:53.034Z,67.08
2018-11-20T04:18:29.460Z,66.35
2018-11-20T04:21:03.398Z,66.75
2018-11-20T04:23:56.409Z,65.96
2018-11-20T04:27:00.800Z,65.45
2018-11-20T04:29:33.864Z,65.91
2018-11-20T04:32:08.105Z,66.51
2018-11-20T04:34:42.006Z,66.34
2018-11-20T04:37:16.151Z,65.51
2018-11-20T04:39:58.361Z,66.18
2018-11-20T04:42:31.317Z,66.58
2018-11-20T04:47:13.682Z,66.59
2018-11-20T04:49:46.643Z,64.52
2018-11-20T04:52:50.041Z,65.37
2018-11-20T04:55:26.130Z,64.73
2018-11-20T04:58:02.989Z,64.77
2018-11-20T05:00:42.875Z,64.59
2018-11-20T05:03:19.855Z,64.82
2018-11-20T05:05:54.974Z,65.46
2018-11-20T05:08:29.228Z,65.11
2018-11-20T05:11:34.437Z,65.59
2018-11-20T05:16:16.552Z,65.33
2018-11-20T05:18:52.526Z,65.25
2018-11-20T05:21:31.071Z,65.29
2018-11-20T05:24:05.143Z,66.30
2018-11-20T05:26:38.079Z,65.74
2018-11-20T05:29:12.539Z,66.45
2018-11-20T05:32:45.360Z,65.94
2018-11-20T05:35:23.158Z,66.63
2018-11-20T05:37:57.193Z,66.83
2018-11-20T05:41:33.053Z,66.30
2018-11-20T05:44:07.165Z,66.57
2018-11-20T05:47:41.026Z,66.92
2018-11-20T05:50:18.088Z,66.92
2018-11-20T05:52:53.110Z,66.58
2018-11-20T05:55:45.973Z,66.98
2018-11-20T05:58:27.770Z,67.01
2018-11-20T06:01:01.277Z,66.74
2018-11-20T06:05:40.364Z,66.52
2018-11-20T06:08:17.079Z,67.10
2018-11-20T06:10:50.760Z,67.56
2018-11-20T06:13:31.073Z,67.34
2018-11-20T06:18:08.658Z,67.59
2018-11-20T06:21:47.429Z,67.52
2018-11-20T06:24:20.395Z,67.48
2018-11-20T06:27:58.404Z,67.70
2018-11-20T06:30:35.329Z,68.39
2018-11-20T06:33:10.286Z,68.54
2018-11-20T06:35:45.298Z,68.95
2018-11-20T06:38:20.187Z,68.93
2018-11-20T06:42:59.748Z,68.24
2018-11-20T06:45:36.690Z,68.53
2018-11-20T06:48:14.649Z,68.19
2018-11-20T06:50:50.596Z,68.63
2018-11-20T06:53:26.623Z,68.87
2018-11-20T06:58:04.495Z,68.77
2018-11-20T07:00:39.627Z,68.90
2018-11-20T07:05:19.534Z,69.26
2018-11-20T07:07:59.536Z,68.90
2018-11-20T07:12:40.516Z,68.87
2018-11-20T07:15:15.539Z,69.66
2018-11-20T07:17:52.505Z,69.38
2018-11-20T07:20:26.599Z,69.26
2018-11-20T07:23:15.809Z,69.04
2018-11-20T07:27:55.863Z,69.59
2018-11-20T07:31:28.341Z,69.15
2018-11-20T07:34:02.450Z,70.13
2018-11-20T07:36:37.184Z,70.13
2018-11-20T07:39:12.899Z,70.38
2018-11-20T07:41:50.100Z,70.35
2018-11-20T07:44:25.205Z,69.97
2018-11-20T07:47:07.540Z,70.83
2018-11-20T07:49:41.599Z,71.12
2018-11-20T07:53:19.278Z,71.06
2018-11-20T07:55:53.571Z,69.64
2018-11-20T07:58:26.558Z,70.07
2018-11-20T08:01:00.829Z,70.81
2018-11-20T08:03:33.965Z,70.25
2018-11-20T08:06:08.160Z,70.24
2018-11-20T08:08:42.138Z,70.79
2018-11-20T08:11:16.378Z,70.57
2018-11-20T08:15:56.948Z,70.85
2018-11-20T08:18:49.149Z,70.42
2018-11-20T08:21:23.024Z,71.11
2018-11-20T08:23:57.240Z,71.42
2018-11-20T08:26:34.294Z,71.15
2018-11-20T08:29:14.229Z,70.39
2018-11-20T08:31:47.251Z,70.41
2018-11-20T08:34:20.264Z,70.78
2018-11-20T08:36:54.410Z,70.30
2018-11-20T08:39:28.570Z,70.57
2018-11-20T08:42:22.671Z,70.51
2018-11-20T08:45:59.162Z,69.63
2018-11-20T08:48:33.385Z,69.53
2018-11-20T08:51:07.157Z,69.48
2018-11-20T08:53:41.781Z,69.41
2018-11-20T08:56:22.222Z,69.42
2018-11-20T08:59:00.761Z,68.85
2018-11-20T09:01:35.690Z,69.43
2018-11-20T09:04:09.824Z,68.93
2018-11-20T09:06:44.108Z,68.61
2018-11-20T09:09:18.977Z,68.63
2018-11-20T09:12:51.513Z,68.59
2018-11-20T09:16:27.424Z,69.06
2018-11-20T09:21:04.051Z,68.91
2018-11-20T09:24:41.025Z,68.58
2018-11-20T09:27:17.996Z,68.55
2018-11-20T09:30:12.170Z,69.13
2018-11-20T09:32:45.130Z,69.02
2018-11-20T09:35:23.238Z,68.48
2018-11-20T09:38:00.037Z,68.01
2018-11-20T09:40:47.285Z,68.94
2018-11-20T09:44:20.496Z,68.67
2018-11-20T09:46:54.801Z,68.60
2018-11-20T09:49:28.606Z,68.81
2018-11-20T09:52:03.500Z,69.12
2018-11-20T09:54:37.626Z,69.17
2018-11-20T09:57:14.495Z,69.40
2018-11-20T09:59:50.282Z,69.54
2018-11-20T10:02:24.102Z,69.52
2018-11-20T10:07:05.219Z,69.30
2018-11-20T10:09:41.006Z,69.62
2018-11-20T10:14:18.285Z,69.34
2018-11-20T10:16:52.501Z,68.95
2018-11-20T10:19:31.502Z,69.38
2018-11-20T10:22:14.509Z,69.65
2018-11-20T10:25:52.353Z,69.04
2018-11-20T10:28:26.401Z,69.13
2018-11-20T10:31:01.276Z,68.70
2018-11-20T10:33:35.385Z,68.76
2018-11-20T10:36:09.356Z,68.54
2018-11-20T10:38:43.469Z,68.33
2018-11-20T10:43:21.318Z,69.50
2018-11-20T10:46:14.793Z,68.64
2018-11-20T10:48:48.667Z,68.75
2018-11-20T10:51:29.477Z,68.35
2018-11-20T10:54:03.637Z,68.46
2018-11-20T10:56:38.524Z,68.93
2018-11-20T10:59:44.411Z,69.44
2018-11-20T11:02:18.593Z,68.55
2018-11-20T11:04:52.741Z,68.87
2018-11-20T11:07:27.084Z,69.25
2018-11-20T11:10:01.238Z,68.76
2018-11-20T11:12:35.402Z,69.53
2018-11-20T11:15:10.214Z,69.37
2018-11-20T11:17:44.252Z,69.64
2018-11-20T11:20:26.956Z,69.68
2018-11-20T11:23:08.946Z,68.68
2018-11-20T11:27:47.891Z,70.19
2018-11-20T11:31:24.984Z,69.52
2018-11-20T11:33:59.181Z,69.42
2018-11-20T11:36:36.023Z,69.94
2018-11-20T11:39:14.739Z,69.69
2018-11-20T11:41:57.800Z,69.69
2018-11-20T11:46:38.028Z,69.59
2018-11-20T11:49:12.214Z,69.51
2018-11-20T11:51:45.187Z,70.26
2018-11-20T11:54:19.086Z,70.19
2018-11-20T11:56:56.042Z,69.80
